sensor_id;sensor_type;location;lat;lon;timestamp;P1;durP1;ratioP1;P2;durP2;ratioP2
16472;SDS011;8347;52.486;13.432;2024-01-30T00:00:14;15.90;;;8.98;;
16472;SDS011;8347;52.486;13.432;2024-01-30T00:03:01;13.10;;;7.82;;
16472;SDS011;8347;52.486;13.432;2024-01-30T00:05:47;13.70;;;7.90;;
16472;SDS011;8347;52.486;13.432;2024-01-30T00:08:34;15.50;;;7.93;;
16472;SDS011;8347;52.486;13.432;2024-01-30T00:11:20;10.63;;;6.20;;
16472;SDS011;8347;52.486;13.432;2024-01-30T00:14:07;14.38;;;7.35;;
16472;SDS011;8347;52.486;13.432;2024-01-30T00:16:53;13.73;;;6.85;;
16472;SDS011;8347;52.486;13.432;2024-01-30T00:19:42;18.15;;;8.80;;
16472;SDS011;8347;52.486;13.432;2024-01-30T00:22:29;13.55;;;7.55;;
16472;SDS011;8347;52.486;13.432;2024-01-30T00:25:16;11.10;;;7.82;;
16472;SDS011;8347;52.486;13.432;2024-01-30T00:28:02;12.90;;;7.00;;
16472;SDS011;8347;52.486;13.432;2024-01-30T00:30:49;12.48;;;7.70;;
16472;SDS011;8347;52.486;13.432;2024-01-30T00:33:35;15.77;;;7.45;;
16472;SDS011;8347;52.486;13.432;2024-01-30T00:36:22;20.05;;;7.95;;
16472;SDS011;8347;52.486;13.432;2024-01-30T00:39:08;11.20;;;5.93;;
16472;SDS011;8347;52.486;13.432;2024-01-30T00:41:55;11.32;;;6.88;;
16472;SDS011;8347;52.486;13.432;2024-01-30T00:44:41;11.63;;;6.65;;
16472;SDS011;8347;52.486;13.432;2024-01-30T00:47:28;18.17;;;7.05;;
16472;SDS011;8347;52.486;13.432;2024-01-30T00:50:15;11.23;;;6.25;;
16472;SDS011;8347;52.486;13.432;2024-01-30T00:53:01;12.35;;;7.35;;
16472;SDS011;8347;52.486;13.432;2024-01-30T00:55:48;14.13;;;8.00;;
16472;SDS011;8347;52.486;13.432;2024-01-30T00:58:35;14.65;;;6.97;;
16472;SDS011;8347;52.486;13.432;2024-01-30T01:01:21;10.77;;;6.22;;
16472;SDS011;8347;52.486;13.432;2024-01-30T01:04:08;12.60;;;6.88;;
16472;SDS011;8347;52.486;13.432;2024-01-30T01:06:54;13.35;;;6.32;;
16472;SDS011;8347;52.486;13.432;2024-01-30T01:09:41;12.57;;;6.82;;
16472;SDS011;8347;52.486;13.432;2024-01-30T01:12:28;10.05;;;6.03;;
16472;SDS011;8347;52.486;13.432;2024-01-30T01:15:14;14.57;;;7.50;;
16472;SDS011;8347;52.486;13.432;2024-01-30T01:18:01;12.98;;;6.90;;
16472;SDS011;8347;52.486;13.432;2024-01-30T01:20:47;13.93;;;7.63;;
16472;SDS011;8347;52.486;13.432;2024-01-30T01:23:34;14.02;;;6.95;;
16472;SDS011;8347;52.486;13.432;2024-01-30T01:26:20;12.75;;;7.60;;
16472;SDS011;8347;52.486;13.432;2024-01-30T01:29:07;14.15;;;7.00;;
16472;SDS011;8347;52.486;13.432;2024-01-30T01:31:58;15.02;;;6.78;;
16472;SDS011;8347;52.486;13.432;2024-01-30T01:34:44;12.52;;;6.75;;
16472;SDS011;8347;52.486;13.432;2024-01-30T01:37:31;12.70;;;6.68;;
16472;SDS011;8347;52.486;13.432;2024-01-30T01:40:17;11.85;;;7.45;;
16472;SDS011;8347;52.486;13.432;2024-01-30T01:43:04;13.05;;;7.75;;
16472;SDS011;8347;52.486;13.432;2024-01-30T01:45:51;13.30;;;7.20;;
16472;SDS011;8347;52.486;13.432;2024-01-30T01:48:37;16.23;;;7.05;;
16472;SDS011;8347;52.486;13.432;2024-01-30T01:51:26;16.75;;;7.82;;
16472;SDS011;8347;52.486;13.432;2024-01-30T01:54:14;11.35;;;7.30;;
16472;SDS011;8347;52.486;13.432;2024-01-30T01:57:00;13.90;;;7.43;;
16472;SDS011;8347;52.486;13.432;2024-01-30T01:59:47;15.32;;;7.97;;
16472;SDS011;8347;52.486;13.432;2024-01-30T02:02:34;14.25;;;7.65;;
16472;SDS011;8347;52.486;13.432;2024-01-30T02:05:21;14.57;;;7.63;;
16472;SDS011;8347;52.486;13.432;2024-01-30T02:08:08;15.48;;;7.03;;
16472;SDS011;8347;52.486;13.432;2024-01-30T02:10:55;16.60;;;7.50;;
16472;SDS011;8347;52.486;13.432;2024-01-30T02:13:41;12.70;;;7.70;;
16472;SDS011;8347;52.486;13.432;2024-01-30T02:16:28;11.73;;;6.85;;
16472;SDS011;8347;52.486;13.432;2024-01-30T02:19:15;12.55;;;6.82;;
16472;SDS011;8347;52.486;13.432;2024-01-30T02:22:02;14.43;;;6.70;;
16472;SDS011;8347;52.486;13.432;2024-01-30T02:24:48;13.18;;;6.50;;
16472;SDS011;8347;52.486;13.432;2024-01-30T02:27:35;13.13;;;7.47;;
16472;SDS011;8347;52.486;13.432;2024-01-30T02:30:22;13.23;;;6.43;;
16472;SDS011;8347;52.486;13.432;2024-01-30T02:33:08;14.40;;;6.90;;
16472;SDS011;8347;52.486;13.432;2024-01-30T02:35:55;17.02;;;7.93;;
16472;SDS011;8347;52.486;13.432;2024-01-30T02:38:41;15.50;;;6.35;;
16472;SDS011;8347;52.486;13.432;2024-01-30T02:41:28;11.88;;;6.88;;
16472;SDS011;8347;52.486;13.432;2024-01-30T02:44:14;12.18;;;6.95;;
16472;SDS011;8347;52.486;13.432;2024-01-30T02:47:01;16.17;;;7.03;;
16472;SDS011;8347;52.486;13.432;2024-01-30T02:49:47;16.02;;;7.05;;
16472;SDS011;8347;52.486;13.432;2024-01-30T02:52:34;11.48;;;6.38;;
16472;SDS011;8347;52.486;13.432;2024-01-30T02:55:21;13.18;;;6.97;;
16472;SDS011;8347;52.486;13.432;2024-01-30T02:58:07;19.75;;;6.60;;
16472;SDS011;8347;52.486;13.432;2024-01-30T03:00:53;11.32;;;6.60;;
16472;SDS011;8347;52.486;13.432;2024-01-30T03:03:40;13.70;;;6.43;;
16472;SDS011;8347;52.486;13.432;2024-01-30T03:06:28;11.23;;;6.65;;
16472;SDS011;8347;52.486;13.432;2024-01-30T03:09:16;11.07;;;6.70;;
16472;SDS011;8347;52.486;13.432;2024-01-30T03:12:06;11.27;;;6.75;;
16472;SDS011;8347;52.486;13.432;2024-01-30T03:14:52;14.35;;;6.63;;
16472;SDS011;8347;52.486;13.432;2024-01-30T03:17:39;11.25;;;7.10;;
16472;SDS011;8347;52.486;13.432;2024-01-30T03:20:26;12.88;;;7.65;;
16472;SDS011;8347;52.486;13.432;2024-01-30T03:23:12;13.00;;;6.47;;
16472;SDS011;8347;52.486;13.432;2024-01-30T03:25:59;11.23;;;6.47;;
16472;SDS011;8347;52.486;13.432;2024-01-30T03:28:45;15.77;;;7.03;;
16472;SDS011;8347;52.486;13.432;2024-01-30T03:31:32;13.85;;;7.00;;
16472;SDS011;8347;52.486;13.432;2024-01-30T03:34:19;9.63;;;6.25;;
16472;SDS011;8347;52.486;13.432;2024-01-30T03:37:05;13.18;;;7.13;;
16472;SDS011;8347;52.486;13.432;2024-01-30T03:39:52;16.90;;;7.35;;
16472;SDS011;8347;52.486;13.432;2024-01-30T03:42:38;12.93;;;7.30;;
16472;SDS011;8347;52.486;13.432;2024-01-30T03:45:25;10.13;;;6.93;;
16472;SDS011;8347;52.486;13.432;2024-01-30T03:48:11;15.55;;;6.68;;
16472;SDS011;8347;52.486;13.432;2024-01-30T03:50:58;15.68;;;8.20;;
16472;SDS011;8347;52.486;13.432;2024-01-30T03:53:44;14.80;;;7.00;;
16472;SDS011;8347;52.486;13.432;2024-01-30T03:56:34;12.50;;;7.40;;
16472;SDS011;8347;52.486;13.432;2024-01-30T03:59:20;13.27;;;8.07;;
16472;SDS011;8347;52.486;13.432;2024-01-30T04:02:10;10.98;;;6.57;;
16472;SDS011;8347;52.486;13.432;2024-01-30T04:04:57;13.50;;;6.55;;
16472;SDS011;8347;52.486;13.432;2024-01-30T04:07:44;10.90;;;6.68;;
16472;SDS011;8347;52.486;13.432;2024-01-30T04:10:30;14.15;;;8.18;;
16472;SDS011;8347;52.486;13.432;2024-01-30T04:13:17;13.60;;;7.63;;
16472;SDS011;8347;52.486;13.432;2024-01-30T04:16:03;13.82;;;7.30;;
16472;SDS011;8347;52.486;13.432;2024-01-30T04:18:51;14.23;;;7.00;;
16472;SDS011;8347;52.486;13.432;2024-01-30T04:21:37;11.60;;;7.88;;
16472;SDS011;8347;52.486;13.432;2024-01-30T04:24:24;17.35;;;7.47;;
16472;SDS011;8347;52.486;13.432;2024-01-30T04:27:11;10.55;;;7.13;;
16472;SDS011;8347;52.486;13.432;2024-01-30T04:29:57;14.27;;;7.03;;
16472;SDS011;8347;52.486;13.432;2024-01-30T04:32:44;14.20;;;7.70;;
16472;SDS011;8347;52.486;13.432;2024-01-30T04:35:30;12.57;;;8.13;;
16472;SDS011;8347;52.486;13.432;2024-01-30T04:38:17;12.30;;;6.28;;
16472;SDS011;8347;52.486;13.432;2024-01-30T04:41:03;12.65;;;7.13;;
16472;SDS011;8347;52.486;13.432;2024-01-30T04:43:50;12.00;;;6.95;;
16472;SDS011;8347;52.486;13.432;2024-01-30T04:46:36;16.40;;;7.80;;
16472;SDS011;8347;52.486;13.432;2024-01-30T04:49:23;14.30;;;7.70;;
16472;SDS011;8347;52.486;13.432;2024-01-30T04:52:10;18.17;;;7.55;;
16472;SDS011;8347;52.486;13.432;2024-01-30T04:54:56;14.60;;;7.93;;
16472;SDS011;8347;52.486;13.432;2024-01-30T04:57:43;12.18;;;8.23;;
16472;SDS011;8347;52.486;13.432;2024-01-30T05:00:29;13.85;;;7.07;;
16472;SDS011;8347;52.486;13.432;2024-01-30T05:03:16;18.90;;;7.55;;
16472;SDS011;8347;52.486;13.432;2024-01-30T05:06:03;11.05;;;6.78;;
16472;SDS011;8347;52.486;13.432;2024-01-30T05:08:49;18.95;;;7.90;;
16472;SDS011;8347;52.486;13.432;2024-01-30T05:11:39;13.60;;;7.70;;
16472;SDS011;8347;52.486;13.432;2024-01-30T05:14:26;12.68;;;7.35;;
16472;SDS011;8347;52.486;13.432;2024-01-30T05:17:13;14.48;;;7.38;;
16472;SDS011;8347;52.486;13.432;2024-01-30T05:19:59;11.27;;;7.13;;
16472;SDS011;8347;52.486;13.432;2024-01-30T05:22:46;13.90;;;7.90;;
16472;SDS011;8347;52.486;13.432;2024-01-30T05:25:32;17.40;;;8.20;;
16472;SDS011;8347;52.486;13.432;2024-01-30T05:28:19;12.63;;;7.75;;
16472;SDS011;8347;52.486;13.432;2024-01-30T05:31:05;13.80;;;7.30;;
16472;SDS011;8347;52.486;13.432;2024-01-30T05:33:52;13.05;;;7.55;;
16472;SDS011;8347;52.486;13.432;2024-01-30T05:36:38;15.40;;;7.80;;
16472;SDS011;8347;52.486;13.432;2024-01-30T05:39:25;14.43;;;7.82;;
16472;SDS011;8347;52.486;13.432;2024-01-30T05:42:11;14.25;;;8.25;;
16472;SDS011;8347;52.486;13.432;2024-01-30T05:44:58;12.75;;;7.30;;
16472;SDS011;8347;52.486;13.432;2024-01-30T05:47:44;16.15;;;8.80;;
16472;SDS011;8347;52.486;13.432;2024-01-30T05:50:31;13.95;;;8.10;;
16472;SDS011;8347;52.486;13.432;2024-01-30T05:53:18;18.30;;;8.02;;
16472;SDS011;8347;52.486;13.432;2024-01-30T05:56:04;12.07;;;7.70;;
16472;SDS011;8347;52.486;13.432;2024-01-30T05:58:51;15.95;;;8.20;;
16472;SDS011;8347;52.486;13.432;2024-01-30T06:01:37;11.18;;;7.10;;
16472;SDS011;8347;52.486;13.432;2024-01-30T06:04:24;16.00;;;7.70;;
16472;SDS011;8347;52.486;13.432;2024-01-30T06:07:10;14.00;;;7.90;;
16472;SDS011;8347;52.486;13.432;2024-01-30T06:09:57;12.65;;;7.57;;
16472;SDS011;8347;52.486;13.432;2024-01-30T06:12:44;16.35;;;8.75;;
16472;SDS011;8347;52.486;13.432;2024-01-30T06:15:30;16.00;;;8.95;;
16472;SDS011;8347;52.486;13.432;2024-01-30T06:18:18;15.15;;;8.00;;
16472;SDS011;8347;52.486;13.432;2024-01-30T06:21:06;15.45;;;7.63;;
16472;SDS011;8347;52.486;13.432;2024-01-30T06:23:52;17.00;;;8.60;;
16472;SDS011;8347;52.486;13.432;2024-01-30T06:26:39;17.65;;;8.80;;
16472;SDS011;8347;52.486;13.432;2024-01-30T06:29:26;13.65;;;7.45;;
16472;SDS011;8347;52.486;13.432;2024-01-30T06:32:12;16.45;;;8.07;;
16472;SDS011;8347;52.486;13.432;2024-01-30T06:34:59;18.70;;;9.68;;
16472;SDS011;8347;52.486;13.432;2024-01-30T06:37:46;16.73;;;9.27;;
16472;SDS011;8347;52.486;13.432;2024-01-30T06:40:32;16.27;;;9.52;;
16472;SDS011;8347;52.486;13.432;2024-01-30T06:43:19;18.33;;;8.50;;
16472;SDS011;8347;52.486;13.432;2024-01-30T06:46:05;19.15;;;8.20;;
16472;SDS011;8347;52.486;13.432;2024-01-30T06:48:52;17.02;;;7.93;;
16472;SDS011;8347;52.486;13.432;2024-01-30T06:51:38;14.77;;;7.60;;
16472;SDS011;8347;52.486;13.432;2024-01-30T06:54:25;14.80;;;8.60;;
16472;SDS011;8347;52.486;13.432;2024-01-30T06:57:11;15.35;;;8.85;;
16472;SDS011;8347;52.486;13.432;2024-01-30T06:59:59;19.40;;;9.15;;
16472;SDS011;8347;52.486;13.432;2024-01-30T07:02:46;16.00;;;9.07;;
16472;SDS011;8347;52.486;13.432;2024-01-30T07:05:32;14.43;;;9.02;;
16472;SDS011;8347;52.486;13.432;2024-01-30T07:08:18;17.20;;;8.88;;
16472;SDS011;8347;52.486;13.432;2024-01-30T07:11:05;18.23;;;8.32;;
16472;SDS011;8347;52.486;13.432;2024-01-30T07:13:52;15.68;;;9.07;;
16472;SDS011;8347;52.486;13.432;2024-01-30T07:16:39;18.48;;;8.07;;
16472;SDS011;8347;52.486;13.432;2024-01-30T07:19:25;14.43;;;7.82;;
16472;SDS011;8347;52.486;13.432;2024-01-30T07:22:12;16.35;;;8.98;;
16472;SDS011;8347;52.486;13.432;2024-01-30T07:24:59;17.48;;;9.98;;
16472;SDS011;8347;52.486;13.432;2024-01-30T07:27:45;15.93;;;9.35;;
16472;SDS011;8347;52.486;13.432;2024-01-30T07:30:32;14.07;;;8.35;;
16472;SDS011;8347;52.486;13.432;2024-01-30T07:33:19;12.80;;;7.97;;
16472;SDS011;8347;52.486;13.432;2024-01-30T07:36:05;15.00;;;9.35;;
16472;SDS011;8347;52.486;13.432;2024-01-30T07:38:52;18.48;;;9.27;;
16472;SDS011;8347;52.486;13.432;2024-01-30T07:41:40;17.65;;;10.00;;
16472;SDS011;8347;52.486;13.432;2024-01-30T07:44:27;22.05;;;8.95;;
16472;SDS011;8347;52.486;13.432;2024-01-30T07:47:13;22.77;;;9.98;;
16472;SDS011;8347;52.486;13.432;2024-01-30T07:50:00;20.52;;;9.30;;
16472;SDS011;8347;52.486;13.432;2024-01-30T07:52:46;17.83;;;9.50;;
16472;SDS011;8347;52.486;13.432;2024-01-30T07:55:36;18.30;;;8.60;;
16472;SDS011;8347;52.486;13.432;2024-01-30T07:58:24;16.48;;;9.00;;
16472;SDS011;8347;52.486;13.432;2024-01-30T08:01:14;18.67;;;10.68;;
16472;SDS011;8347;52.486;13.432;2024-01-30T08:04:01;23.17;;;11.07;;
16472;SDS011;8347;52.486;13.432;2024-01-30T08:06:47;19.52;;;11.02;;
16472;SDS011;8347;52.486;13.432;2024-01-30T08:09:34;18.20;;;9.27;;
16472;SDS011;8347;52.486;13.432;2024-01-30T08:12:20;19.88;;;9.27;;
16472;SDS011;8347;52.486;13.432;2024-01-30T08:15:07;15.80;;;9.20;;
16472;SDS011;8347;52.486;13.432;2024-01-30T08:17:54;17.05;;;9.80;;
16472;SDS011;8347;52.486;13.432;2024-01-30T08:20:43;17.02;;;9.30;;
16472;SDS011;8347;52.486;13.432;2024-01-30T08:23:29;16.92;;;9.25;;
16472;SDS011;8347;52.486;13.432;2024-01-30T08:26:16;16.60;;;9.02;;
16472;SDS011;8347;52.486;13.432;2024-01-30T08:29:02;21.17;;;10.52;;
16472;SDS011;8347;52.486;13.432;2024-01-30T08:31:49;14.23;;;8.55;;
16472;SDS011;8347;52.486;13.432;2024-01-30T08:34:36;18.75;;;8.27;;
16472;SDS011;8347;52.486;13.432;2024-01-30T08:37:23;17.88;;;8.52;;
16472;SDS011;8347;52.486;13.432;2024-01-30T08:40:10;19.20;;;7.95;;
16472;SDS011;8347;52.486;13.432;2024-01-30T08:42:56;17.27;;;9.40;;
16472;SDS011;8347;52.486;13.432;2024-01-30T08:45:42;16.10;;;8.38;;
16472;SDS011;8347;52.486;13.432;2024-01-30T08:48:29;14.15;;;7.78;;
16472;SDS011;8347;52.486;13.432;2024-01-30T08:51:16;18.40;;;10.13;;
16472;SDS011;8347;52.486;13.432;2024-01-30T08:54:02;17.20;;;7.53;;
16472;SDS011;8347;52.486;13.432;2024-01-30T08:56:49;17.02;;;9.05;;
16472;SDS011;8347;52.486;13.432;2024-01-30T08:59:35;12.70;;;7.32;;
16472;SDS011;8347;52.486;13.432;2024-01-30T09:02:22;15.98;;;8.02;;
16472;SDS011;8347;52.486;13.432;2024-01-30T09:05:09;13.25;;;7.22;;
16472;SDS011;8347;52.486;13.432;2024-01-30T09:07:55;10.88;;;8.30;;
16472;SDS011;8347;52.486;13.432;2024-01-30T09:10:41;14.27;;;8.20;;
16472;SDS011;8347;52.486;13.432;2024-01-30T09:13:28;13.68;;;8.40;;
16472;SDS011;8347;52.486;13.432;2024-01-30T09:16:14;15.25;;;7.20;;
16472;SDS011;8347;52.486;13.432;2024-01-30T09:19:01;12.50;;;7.43;;
16472;SDS011;8347;52.486;13.432;2024-01-30T09:21:48;14.15;;;8.23;;
16472;SDS011;8347;52.486;13.432;2024-01-30T09:24:34;14.63;;;8.65;;
16472;SDS011;8347;52.486;13.432;2024-01-30T09:27:21;17.42;;;9.48;;
16472;SDS011;8347;52.486;13.432;2024-01-30T09:30:08;18.98;;;10.00;;
16472;SDS011;8347;52.486;13.432;2024-01-30T09:32:54;18.58;;;9.52;;
16472;SDS011;8347;52.486;13.432;2024-01-30T09:35:41;13.65;;;7.30;;
16472;SDS011;8347;52.486;13.432;2024-01-30T09:38:27;14.45;;;7.63;;
16472;SDS011;8347;52.486;13.432;2024-01-30T09:41:14;12.65;;;7.32;;
16472;SDS011;8347;52.486;13.432;2024-01-30T09:44:01;13.63;;;7.32;;
16472;SDS011;8347;52.486;13.432;2024-01-30T09:46:49;17.35;;;8.98;;
16472;SDS011;8347;52.486;13.432;2024-01-30T09:49:36;14.90;;;8.45;;
16472;SDS011;8347;52.486;13.432;2024-01-30T09:52:24;14.48;;;8.32;;
16472;SDS011;8347;52.486;13.432;2024-01-30T09:55:10;13.73;;;7.85;;
16472;SDS011;8347;52.486;13.432;2024-01-30T09:57:57;13.75;;;7.15;;
16472;SDS011;8347;52.486;13.432;2024-01-30T10:00:45;11.35;;;7.50;;
16472;SDS011;8347;52.486;13.432;2024-01-30T10:03:32;13.90;;;7.00;;
16472;SDS011;8347;52.486;13.432;2024-01-30T10:06:18;20.55;;;10.18;;
16472;SDS011;8347;52.486;13.432;2024-01-30T10:09:06;17.98;;;7.70;;
16472;SDS011;8347;52.486;13.432;2024-01-30T10:11:52;9.82;;;6.93;;
16472;SDS011;8347;52.486;13.432;2024-01-30T10:14:39;13.85;;;8.15;;
16472;SDS011;8347;52.486;13.432;2024-01-30T10:17:26;12.45;;;6.78;;
16472;SDS011;8347;52.486;13.432;2024-01-30T10:20:13;17.50;;;7.45;;
16472;SDS011;8347;52.486;13.432;2024-01-30T10:22:59;12.38;;;7.28;;
16472;SDS011;8347;52.486;13.432;2024-01-30T10:25:46;12.57;;;7.13;;
16472;SDS011;8347;52.486;13.432;2024-01-30T10:28:33;11.70;;;7.35;;
16472;SDS011;8347;52.486;13.432;2024-01-30T10:31:19;12.80;;;7.35;;
16472;SDS011;8347;52.486;13.432;2024-01-30T10:34:06;16.25;;;7.75;;
16472;SDS011;8347;52.486;13.432;2024-01-30T10:36:57;11.38;;;6.95;;
16472;SDS011;8347;52.486;13.432;2024-01-30T10:39:46;11.73;;;6.82;;
16472;SDS011;8347;52.486;13.432;2024-01-30T10:42:33;12.68;;;8.02;;
16472;SDS011;8347;52.486;13.432;2024-01-30T10:45:22;15.70;;;7.50;;
16472;SDS011;8347;52.486;13.432;2024-01-30T10:48:09;12.52;;;6.90;;
16472;SDS011;8347;52.486;13.432;2024-01-30T10:50:57;10.48;;;5.70;;
16472;SDS011;8347;52.486;13.432;2024-01-30T10:53:46;15.38;;;6.63;;
16472;SDS011;8347;52.486;13.432;2024-01-30T10:56:34;11.65;;;6.35;;
16472;SDS011;8347;52.486;13.432;2024-01-30T10:59:21;15.25;;;7.78;;
16472;SDS011;8347;52.486;13.432;2024-01-30T11:02:09;14.13;;;7.18;;
16472;SDS011;8347;52.486;13.432;2024-01-30T11:04:57;15.57;;;8.07;;
16472;SDS011;8347;52.486;13.432;2024-01-30T11:07:44;11.85;;;6.70;;
16472;SDS011;8347;52.486;13.432;2024-01-30T11:10:31;13.27;;;6.50;;
16472;SDS011;8347;52.486;13.432;2024-01-30T11:13:18;33.30;;;9.82;;
16472;SDS011;8347;52.486;13.432;2024-01-30T11:16:05;13.13;;;6.80;;
16472;SDS011;8347;52.486;13.432;2024-01-30T11:18:52;15.43;;;7.88;;
16472;SDS011;8347;52.486;13.432;2024-01-30T11:21:41;18.60;;;8.20;;
16472;SDS011;8347;52.486;13.432;2024-01-30T11:24:28;14.38;;;7.28;;
16472;SDS011;8347;52.486;13.432;2024-01-30T11:27:14;15.05;;;7.72;;
16472;SDS011;8347;52.486;13.432;2024-01-30T11:30:02;15.10;;;7.53;;
16472;SDS011;8347;52.486;13.432;2024-01-30T11:32:58;14.38;;;7.40;;
16472;SDS011;8347;52.486;13.432;2024-01-30T11:35:50;20.02;;;10.02;;
16472;SDS011;8347;52.486;13.432;2024-01-30T11:38:36;18.35;;;8.73;;
16472;SDS011;8347;52.486;13.432;2024-01-30T11:41:23;13.35;;;8.35;;
16472;SDS011;8347;52.486;13.432;2024-01-30T11:44:09;13.70;;;7.53;;
16472;SDS011;8347;52.486;13.432;2024-01-30T11:46:56;21.63;;;8.32;;
16472;SDS011;8347;52.486;13.432;2024-01-30T11:49:43;19.65;;;9.25;;
16472;SDS011;8347;52.486;13.432;2024-01-30T11:52:29;16.48;;;8.65;;
16472;SDS011;8347;52.486;13.432;2024-01-30T11:55:16;13.65;;;9.20;;
16472;SDS011;8347;52.486;13.432;2024-01-30T11:58:03;15.60;;;7.82;;
16472;SDS011;8347;52.486;13.432;2024-01-30T12:00:53;12.07;;;8.25;;
16472;SDS011;8347;52.486;13.432;2024-01-30T12:03:41;19.15;;;7.63;;
16472;SDS011;8347;52.486;13.432;2024-01-30T12:06:27;29.17;;;8.98;;
16472;SDS011;8347;52.486;13.432;2024-01-30T12:09:14;14.02;;;8.80;;
16472;SDS011;8347;52.486;13.432;2024-01-30T12:12:00;18.23;;;8.88;;
16472;SDS011;8347;52.486;13.432;2024-01-30T12:14:47;11.60;;;7.32;;
16472;SDS011;8347;52.486;13.432;2024-01-30T12:17:34;13.27;;;7.22;;
16472;SDS011;8347;52.486;13.432;2024-01-30T12:20:20;14.38;;;8.70;;
16472;SDS011;8347;52.486;13.432;2024-01-30T12:23:07;17.20;;;9.18;;
16472;SDS011;8347;52.486;13.432;2024-01-30T12:25:54;16.00;;;8.75;;
16472;SDS011;8347;52.486;13.432;2024-01-30T12:28:50;16.40;;;8.82;;
16472;SDS011;8347;52.486;13.432;2024-01-30T12:31:36;13.27;;;6.80;;
16472;SDS011;8347;52.486;13.432;2024-01-30T12:34:24;20.80;;;7.93;;
16472;SDS011;8347;52.486;13.432;2024-01-30T12:37:11;11.40;;;7.40;;
16472;SDS011;8347;52.486;13.432;2024-01-30T12:39:59;12.60;;;7.90;;
16472;SDS011;8347;52.486;13.432;2024-01-30T12:42:46;20.73;;;8.02;;
16472;SDS011;8347;52.486;13.432;2024-01-30T12:45:35;19.77;;;8.65;;
16472;SDS011;8347;52.486;13.432;2024-01-30T12:48:22;20.23;;;8.55;;
16472;SDS011;8347;52.486;13.432;2024-01-30T12:51:08;13.35;;;8.02;;
16472;SDS011;8347;52.486;13.432;2024-01-30T12:53:55;13.18;;;7.47;;
16472;SDS011;8347;52.486;13.432;2024-01-30T12:56:41;12.35;;;8.18;;
16472;SDS011;8347;52.486;13.432;2024-01-30T12:59:28;13.18;;;7.63;;
16472;SDS011;8347;52.486;13.432;2024-01-30T13:02:14;17.85;;;7.85;;
16472;SDS011;8347;52.486;13.432;2024-01-30T13:05:02;13.63;;;8.13;;
16472;SDS011;8347;52.486;13.432;2024-01-30T13:07:48;16.48;;;8.88;;
16472;SDS011;8347;52.486;13.432;2024-01-30T13:10:35;17.05;;;10.30;;
16472;SDS011;8347;52.486;13.432;2024-01-30T13:13:22;20.75;;;10.00;;
16472;SDS011;8347;52.486;13.432;2024-01-30T13:16:08;13.57;;;8.68;;
16472;SDS011;8347;52.486;13.432;2024-01-30T13:18:55;18.80;;;9.70;;
16472;SDS011;8347;52.486;13.432;2024-01-30T13:21:42;14.88;;;8.20;;
16472;SDS011;8347;52.486;13.432;2024-01-30T13:24:28;14.45;;;8.30;;
16472;SDS011;8347;52.486;13.432;2024-01-30T13:27:15;18.08;;;8.68;;
16472;SDS011;8347;52.486;13.432;2024-01-30T13:30:01;17.83;;;8.10;;
16472;SDS011;8347;52.486;13.432;2024-01-30T13:32:48;14.57;;;8.35;;
16472;SDS011;8347;52.486;13.432;2024-01-30T13:35:34;16.20;;;7.13;;
16472;SDS011;8347;52.486;13.432;2024-01-30T13:38:21;19.05;;;7.43;;
16472;SDS011;8347;52.486;13.432;2024-01-30T13:41:08;10.15;;;6.65;;
16472;SDS011;8347;52.486;13.432;2024-01-30T13:43:54;14.20;;;7.18;;
16472;SDS011;8347;52.486;13.432;2024-01-30T13:46:41;14.48;;;7.55;;
16472;SDS011;8347;52.486;13.432;2024-01-30T13:49:28;16.30;;;8.00;;
16472;SDS011;8347;52.486;13.432;2024-01-30T13:52:14;14.65;;;7.57;;
16472;SDS011;8347;52.486;13.432;2024-01-30T13:55:01;14.57;;;7.97;;
16472;SDS011;8347;52.486;13.432;2024-01-30T13:57:48;13.10;;;6.97;;
16472;SDS011;8347;52.486;13.432;2024-01-30T14:00:34;13.98;;;7.78;;
16472;SDS011;8347;52.486;13.432;2024-01-30T14:03:21;11.88;;;7.15;;
16472;SDS011;8347;52.486;13.432;2024-01-30T14:06:07;14.30;;;7.65;;
16472;SDS011;8347;52.486;13.432;2024-01-30T14:08:54;17.50;;;7.30;;
16472;SDS011;8347;52.486;13.432;2024-01-30T14:11:41;14.20;;;9.20;;
16472;SDS011;8347;52.486;13.432;2024-01-30T14:14:28;19.55;;;9.35;;
16472;SDS011;8347;52.486;13.432;2024-01-30T14:17:14;23.35;;;12.57;;
16472;SDS011;8347;52.486;13.432;2024-01-30T14:20:02;23.50;;;14.15;;
16472;SDS011;8347;52.486;13.432;2024-01-30T14:22:50;21.45;;;10.95;;
16472;SDS011;8347;52.486;13.432;2024-01-30T14:25:37;18.05;;;9.25;;
16472;SDS011;8347;52.486;13.432;2024-01-30T14:28:23;23.60;;;9.45;;
16472;SDS011;8347;52.486;13.432;2024-01-30T14:31:10;14.77;;;8.68;;
16472;SDS011;8347;52.486;13.432;2024-01-30T14:33:57;15.90;;;8.85;;
16472;SDS011;8347;52.486;13.432;2024-01-30T14:36:44;21.48;;;10.70;;
16472;SDS011;8347;52.486;13.432;2024-01-30T14:39:31;19.25;;;10.98;;
16472;SDS011;8347;52.486;13.432;2024-01-30T14:42:18;21.25;;;10.52;;
16472;SDS011;8347;52.486;13.432;2024-01-30T14:45:05;18.48;;;9.30;;
16472;SDS011;8347;52.486;13.432;2024-01-30T14:47:52;16.55;;;9.15;;
16472;SDS011;8347;52.486;13.432;2024-01-30T14:50:39;16.08;;;8.55;;
16472;SDS011;8347;52.486;13.432;2024-01-30T14:53:25;19.05;;;10.10;;
16472;SDS011;8347;52.486;13.432;2024-01-30T14:56:13;16.88;;;8.70;;
16472;SDS011;8347;52.486;13.432;2024-01-30T14:59:00;16.27;;;8.88;;
16472;SDS011;8347;52.486;13.432;2024-01-30T15:01:46;16.88;;;8.55;;
16472;SDS011;8347;52.486;13.432;2024-01-30T15:04:34;15.00;;;8.05;;
16472;SDS011;8347;52.486;13.432;2024-01-30T15:07:20;15.00;;;8.48;;
16472;SDS011;8347;52.486;13.432;2024-01-30T15:10:07;15.00;;;9.38;;
16472;SDS011;8347;52.486;13.432;2024-01-30T15:12:55;11.85;;;6.72;;
16472;SDS011;8347;52.486;13.432;2024-01-30T15:15:41;13.18;;;7.35;;
16472;SDS011;8347;52.486;13.432;2024-01-30T15:18:28;13.45;;;7.45;;
16472;SDS011;8347;52.486;13.432;2024-01-30T15:21:14;14.35;;;7.18;;
16472;SDS011;8347;52.486;13.432;2024-01-30T15:24:06;12.60;;;7.70;;
16472;SDS011;8347;52.486;13.432;2024-01-30T15:26:53;13.48;;;8.48;;
16472;SDS011;8347;52.486;13.432;2024-01-30T15:29:39;14.98;;;9.23;;
16472;SDS011;8347;52.486;13.432;2024-01-30T15:32:26;13.63;;;8.45;;
16472;SDS011;8347;52.486;13.432;2024-01-30T15:35:12;16.77;;;8.23;;
16472;SDS011;8347;52.486;13.432;2024-01-30T15:37:59;16.38;;;8.27;;
16472;SDS011;8347;52.486;13.432;2024-01-30T15:40:45;12.98;;;7.55;;
16472;SDS011;8347;52.486;13.432;2024-01-30T15:43:32;15.15;;;7.80;;
16472;SDS011;8347;52.486;13.432;2024-01-30T15:46:19;22.95;;;8.60;;
16472;SDS011;8347;52.486;13.432;2024-01-30T15:49:06;17.60;;;9.88;;
16472;SDS011;8347;52.486;13.432;2024-01-30T15:51:53;20.08;;;9.30;;
16472;SDS011;8347;52.486;13.432;2024-01-30T15:54:40;23.77;;;12.50;;
16472;SDS011;8347;52.486;13.432;2024-01-30T15:57:27;17.58;;;10.85;;
16472;SDS011;8347;52.486;13.432;2024-01-30T16:00:13;17.02;;;9.70;;
16472;SDS011;8347;52.486;13.432;2024-01-30T16:03:00;19.50;;;10.48;;
16472;SDS011;8347;52.486;13.432;2024-01-30T16:05:47;16.98;;;11.20;;
16472;SDS011;8347;52.486;13.432;2024-01-30T16:08:34;19.23;;;10.35;;
16472;SDS011;8347;52.486;13.432;2024-01-30T16:11:20;19.92;;;9.85;;
16472;SDS011;8347;52.486;13.432;2024-01-30T16:14:07;19.30;;;10.63;;
16472;SDS011;8347;52.486;13.432;2024-01-30T16:16:54;17.65;;;10.52;;
16472;SDS011;8347;52.486;13.432;2024-01-30T16:19:40;23.92;;;11.55;;
16472;SDS011;8347;52.486;13.432;2024-01-30T16:22:26;34.88;;;17.42;;
16472;SDS011;8347;52.486;13.432;2024-01-30T16:25:12;55.40;;;23.45;;
16472;SDS011;8347;52.486;13.432;2024-01-30T16:28:03;91.15;;;33.85;;